createdAt,value
2023-09-13T00:00:58.572Z,7.53
2023-09-13T00:03:46.878Z,7.75
2023-09-13T00:06:35.093Z,7.10
2023-09-13T00:09:22.959Z,9.00
2023-09-13T00:12:10.973Z,10.00
2023-09-13T00:14:58.820Z,8.77
2023-09-13T00:17:48.062Z,7.93
2023-09-13T00:20:35.963Z,9.18
2023-09-13T00:23:23.883Z,7.57
2023-09-13T00:26:12.660Z,10.25
2023-09-13T00:29:00.543Z,8.33
2023-09-13T00:31:48.591Z,8.57
2023-09-13T00:34:37.974Z,9.18
2023-09-13T00:37:25.821Z,9.10
2023-09-13T00:40:13.944Z,7.68
2023-09-13T00:43:01.965Z,6.33
2023-09-13T00:45:51.732Z,7.47
2023-09-13T00:48:39.775Z,7.97
2023-09-13T00:51:29.683Z,9.52
2023-09-13T00:54:17.598Z,9.93
2023-09-13T00:57:05.835Z,9.77
2023-09-13T00:59:54.050Z,8.70
2023-09-13T01:02:42.397Z,10.07
2023-09-13T01:05:30.517Z,10.63
2023-09-13T01:08:19.759Z,12.32
2023-09-13T01:11:07.803Z,10.33
2023-09-13T01:13:55.584Z,10.98
2023-09-13T01:16:48.906Z,9.32
2023-09-13T01:19:49.040Z,9.45
2023-09-13T01:23:08.178Z,10.75
2023-09-13T01:26:02.051Z,13.10
2023-09-13T01:28:52.555Z,10.93
2023-09-13T01:31:40.572Z,12.32
2023-09-13T01:34:28.545Z,11.77
2023-09-13T01:37:16.429Z,12.40
2023-09-13T01:40:07.769Z,10.57
2023-09-13T01:42:57.875Z,10.18
2023-09-13T01:45:47.670Z,9.68
2023-09-13T01:48:36.938Z,10.63
2023-09-13T01:51:25.613Z,13.20
2023-09-13T01:54:13.575Z,10.33
2023-09-13T01:57:01.521Z,10.90
2023-09-13T01:59:49.348Z,12.23
2023-09-13T02:02:38.690Z,14.20
2023-09-13T02:05:26.537Z,12.18
2023-09-13T02:08:14.453Z,9.47
2023-09-13T02:11:02.378Z,13.77
2023-09-13T02:13:52.084Z,14.73
2023-09-13T02:16:40.125Z,16.90
2023-09-13T02:19:29.572Z,17.15
2023-09-13T02:22:17.472Z,15.33
2023-09-13T02:25:06.122Z,15.63
2023-09-13T02:27:54.001Z,16.90
2023-09-13T02:30:41.927Z,18.95
2023-09-13T02:33:29.936Z,21.80
2023-09-13T02:36:19.233Z,17.20
2023-09-13T02:39:07.603Z,18.75
2023-09-13T02:41:55.483Z,21.75
2023-09-13T02:44:43.357Z,20.58
2023-09-13T02:47:31.259Z,22.90
2023-09-13T02:50:19.210Z,20.30
2023-09-13T02:53:08.429Z,25.48
2023-09-13T02:56:04.244Z,20.30
2023-09-13T02:58:52.244Z,23.92
2023-09-13T03:01:40.242Z,22.10
2023-09-13T03:04:28.511Z,27.07
2023-09-13T03:07:16.467Z,26.65
2023-09-13T03:10:06.167Z,25.67
2023-09-13T03:12:54.338Z,24.83
2023-09-13T03:15:42.248Z,27.45
2023-09-13T03:18:30.250Z,29.87
2023-09-13T03:21:19.660Z,31.17
2023-09-13T03:24:10.902Z,32.70
2023-09-13T03:27:01.606Z,36.05
2023-09-13T03:29:49.564Z,32.58
2023-09-13T03:32:37.439Z,34.60
2023-09-13T03:35:26.540Z,34.80
2023-09-13T03:38:14.355Z,38.00
2023-09-13T03:41:03.775Z,30.92
2023-09-13T03:43:53.055Z,31.88
2023-09-13T03:46:41.129Z,34.53
2023-09-13T03:49:29.045Z,32.67
2023-09-13T03:52:16.944Z,33.65
2023-09-13T03:55:05.358Z,31.02
2023-09-13T03:57:53.213Z,26.55
2023-09-13T04:00:42.571Z,22.40
2023-09-13T04:03:30.536Z,28.30
2023-09-13T04:06:18.682Z,25.50
2023-09-13T04:09:07.632Z,24.05
2023-09-13T04:11:55.524Z,19.70
2023-09-13T04:14:43.374Z,22.85
2023-09-13T04:17:32.669Z,19.90
2023-09-13T04:20:21.091Z,19.02
2023-09-13T04:23:08.967Z,18.50
2023-09-13T04:25:56.805Z,19.42
2023-09-13T04:28:44.781Z,21.23
2023-09-13T04:31:32.723Z,23.97
2023-09-13T04:34:22.062Z,10.32
2023-09-13T04:37:10.031Z,7.53
2023-09-13T04:39:58.134Z,7.32
2023-09-13T04:42:52.117Z,7.32
2023-09-13T04:45:40.051Z,6.50
2023-09-13T04:48:28.106Z,5.13
2023-09-13T04:51:17.654Z,6.97
2023-09-13T04:54:05.758Z,8.82
2023-09-13T04:56:53.752Z,9.50
2023-09-13T04:59:45.360Z,5.37
2023-09-13T05:02:33.427Z,4.90
2023-09-13T05:05:21.444Z,6.13
2023-09-13T05:08:10.672Z,8.15
2023-09-13T05:10:58.546Z,9.38
2023-09-13T05:13:48.533Z,6.17
2023-09-13T05:16:36.575Z,8.00
2023-09-13T05:19:24.701Z,7.90
2023-09-13T05:22:12.653Z,7.22
2023-09-13T05:25:02.960Z,6.25
2023-09-13T05:27:53.276Z,6.07
2023-09-13T05:30:41.329Z,4.65
2023-09-13T05:33:29.369Z,4.78
2023-09-13T05:36:17.658Z,4.28
2023-09-13T05:39:05.593Z,3.50
2023-09-13T05:41:55.416Z,2.80
2023-09-13T05:44:43.263Z,5.28
2023-09-13T05:47:31.344Z,3.85
2023-09-13T05:50:19.247Z,5.82
2023-09-13T05:53:07.161Z,3.33
2023-09-13T05:55:55.096Z,3.00
2023-09-13T05:58:45.229Z,2.38
2023-09-13T06:01:33.138Z,3.42
2023-09-13T06:04:21.074Z,4.07
2023-09-13T06:07:10.239Z,2.35
2023-09-13T06:09:59.621Z,3.23
2023-09-13T06:12:47.458Z,3.05
2023-09-13T06:15:36.730Z,3.05
2023-09-13T06:18:24.894Z,3.25
2023-09-13T06:21:15.091Z,3.55
2023-09-13T06:24:02.904Z,4.30
2023-09-13T06:26:50.754Z,3.00
2023-09-13T06:29:38.612Z,3.25
2023-09-13T06:32:39.571Z,3.00
2023-09-13T06:35:30.085Z,2.08
2023-09-13T06:38:19.165Z,2.50
2023-09-13T06:41:07.329Z,2.03
2023-09-13T06:44:08.309Z,2.88
2023-09-13T06:47:04.337Z,3.55
2023-09-13T06:49:55.297Z,4.00
2023-09-13T06:53:04.900Z,2.00
2023-09-13T06:55:54.790Z,2.20
2023-09-13T06:58:44.056Z,3.53
2023-09-13T07:01:58.480Z,2.80
2023-09-13T07:04:45.782Z,2.28
2023-09-13T07:07:51.137Z,3.83
2023-09-13T07:10:39.458Z,2.20
2023-09-13T07:13:27.845Z,3.13
2023-09-13T07:16:15.722Z,2.42
2023-09-13T07:19:04.896Z,2.60
2023-09-13T07:21:53.157Z,3.03
2023-09-13T07:24:42.727Z,2.63
2023-09-13T07:27:30.721Z,5.50
2023-09-13T07:30:21.525Z,2.67
2023-09-13T07:33:09.533Z,2.33
2023-09-13T07:35:57.601Z,2.93
2023-09-13T07:38:46.089Z,3.85
2023-09-13T07:41:36.831Z,7.13
2023-09-13T07:44:24.836Z,3.15
2023-09-13T07:47:12.775Z,3.13
2023-09-13T07:50:01.274Z,2.53
2023-09-13T07:55:42.820Z,2.47
2023-09-13T07:58:32.112Z,3.05
2023-09-13T08:01:20.115Z,2.30
2023-09-13T08:04:08.233Z,2.70
2023-09-13T08:06:56.131Z,3.10
2023-09-13T08:09:43.996Z,2.45
2023-09-13T08:12:32.122Z,3.67
2023-09-13T08:15:30.735Z,2.85
2023-09-13T08:18:26.473Z,2.47
2023-09-13T08:21:14.360Z,3.92
2023-09-13T08:24:04.207Z,2.60
2023-09-13T08:26:52.261Z,3.67
2023-09-13T08:29:41.061Z,2.72
2023-09-13T08:32:30.399Z,5.27
2023-09-13T08:35:18.412Z,2.05
2023-09-13T08:38:07.220Z,3.47
2023-09-13T08:40:56.097Z,2.75
2023-09-13T08:43:44.897Z,3.65
2023-09-13T08:46:33.610Z,2.97
2023-09-13T08:49:23.164Z,2.83
2023-09-13T08:52:14.050Z,3.35
2023-09-13T08:55:05.197Z,4.13
2023-09-13T08:57:54.503Z,3.50
2023-09-13T09:00:43.640Z,3.57
2023-09-13T09:03:32.524Z,2.75
2023-09-13T09:06:22.547Z,2.58
2023-09-13T09:09:10.807Z,3.17
2023-09-13T09:11:59.694Z,2.97
2023-09-13T09:14:48.096Z,2.33
2023-09-13T09:17:36.820Z,2.35
2023-09-13T09:20:28.967Z,2.20
2023-09-13T09:23:19.320Z,2.80
2023-09-13T09:26:07.380Z,3.92
2023-09-13T09:28:55.965Z,2.43
2023-09-13T09:31:44.232Z,3.40
2023-09-13T09:34:32.533Z,2.88
2023-09-13T09:37:20.529Z,2.30
2023-09-13T09:40:15.623Z,4.15
2023-09-13T09:43:03.633Z,3.77
2023-09-13T09:45:51.652Z,2.05
2023-09-13T09:48:40.780Z,2.47
2023-09-13T09:51:29.685Z,2.65
2023-09-13T09:54:17.564Z,1.88
2023-09-13T09:57:07.269Z,2.37
2023-09-13T09:59:55.182Z,2.92
2023-09-13T10:02:43.137Z,2.65
2023-09-13T10:05:31.084Z,2.75
2023-09-13T10:08:18.959Z,2.35
2023-09-13T10:11:07.182Z,2.20
2023-09-13T10:13:56.625Z,1.88
2023-09-13T10:16:45.566Z,1.80
2023-09-13T10:19:34.126Z,2.20
2023-09-13T10:22:26.457Z,1.75
2023-09-13T10:25:15.906Z,2.13
2023-09-13T10:28:04.885Z,1.80
2023-09-13T10:30:54.260Z,3.70
2023-09-13T10:33:45.273Z,2.67
2023-09-13T10:36:33.852Z,2.13
2023-09-13T10:39:25.544Z,2.17
2023-09-13T10:42:58.645Z,2.03
2023-09-13T10:45:46.630Z,2.88
2023-09-13T10:48:36.646Z,3.13
2023-09-13T10:51:24.962Z,1.90
2023-09-13T10:54:13.862Z,3.03
2023-09-13T10:57:03.595Z,3.50
2023-09-13T10:59:52.849Z,4.18
2023-09-13T11:02:42.087Z,2.65
2023-09-13T11:05:31.812Z,4.30
2023-09-13T11:08:29.826Z,2.80
2023-09-13T11:11:19.365Z,5.00
2023-09-13T11:14:11.092Z,2.97
2023-09-13T11:17:10.934Z,2.03
2023-09-13T11:20:13.750Z,4.55
2023-09-13T11:23:22.958Z,5.57
2023-09-13T11:26:30.064Z,5.70
2023-09-13T11:29:25.635Z,3.47
2023-09-13T11:32:20.164Z,5.72
2023-09-13T11:35:08.725Z,5.38
2023-09-13T11:37:57.154Z,3.77
2023-09-13T11:40:49.326Z,3.80
2023-09-13T11:43:51.624Z,3.65
2023-09-13T11:46:49.780Z,3.40
2023-09-13T11:49:41.974Z,4.10
2023-09-13T11:52:50.462Z,4.30
2023-09-13T11:55:40.642Z,5.10
2023-09-13T11:58:38.732Z,4.28
2023-09-13T12:01:35.941Z,4.00
2023-09-13T12:07:19.227Z,7.27
2023-09-13T12:10:11.175Z,5.65
2023-09-13T12:13:09.463Z,5.05
2023-09-13T12:16:04.177Z,4.07
2023-09-13T12:18:52.626Z,4.85
2023-09-13T12:21:44.129Z,5.70
2023-09-13T12:24:32.301Z,3.70
2023-09-13T12:27:20.452Z,5.57
2023-09-13T12:30:11.109Z,5.07
2023-09-13T12:33:00.572Z,4.40
2023-09-13T12:35:49.741Z,5.30
2023-09-13T12:38:47.101Z,4.40
2023-09-13T12:41:35.108Z,5.18
2023-09-13T12:44:22.981Z,4.40
2023-09-13T12:47:10.890Z,6.82
2023-09-13T12:50:00.732Z,3.93
2023-09-13T12:52:52.107Z,3.88
2023-09-13T12:55:40.853Z,6.57
2023-09-13T12:58:28.924Z,4.63
2023-09-13T13:01:16.986Z,4.30
2023-09-13T13:04:07.883Z,4.37
2023-09-13T13:06:59.033Z,7.47
2023-09-13T13:09:51.017Z,4.78
2023-09-13T13:12:39.162Z,5.18
2023-09-13T13:15:31.165Z,4.72
2023-09-13T13:18:19.052Z,3.70
2023-09-13T13:21:09.060Z,5.18
2023-09-13T13:23:58.721Z,3.80
2023-09-13T13:26:46.640Z,4.63
2023-09-13T13:29:35.987Z,4.82
2023-09-13T13:32:23.996Z,4.53
2023-09-13T13:35:11.935Z,4.55
2023-09-13T13:37:59.876Z,4.68
2023-09-13T13:40:49.065Z,5.30
2023-09-13T13:43:37.160Z,3.67
2023-09-13T13:46:25.245Z,5.30
2023-09-13T13:49:17.351Z,2.70
2023-09-13T13:52:05.591Z,3.45
2023-09-13T13:54:53.414Z,6.57
2023-09-13T13:57:43.631Z,6.15
2023-09-13T14:00:31.578Z,3.43
2023-09-13T14:03:19.698Z,4.57
2023-09-13T14:06:07.608Z,5.70
2023-09-13T14:08:55.481Z,4.35
2023-09-13T14:11:43.431Z,3.67
2023-09-13T14:14:32.702Z,5.00
2023-09-13T14:17:20.510Z,5.47
2023-09-13T14:20:09.173Z,3.47
2023-09-13T14:22:57.057Z,6.28
2023-09-13T14:25:44.910Z,5.75
2023-09-13T14:28:34.000Z,4.90
2023-09-13T14:31:23.426Z,4.10
2023-09-13T14:34:11.640Z,4.07
2023-09-13T14:36:59.876Z,4.03
2023-09-13T14:39:47.742Z,3.35
2023-09-13T14:42:35.708Z,3.80
2023-09-13T14:45:23.656Z,5.25
2023-09-13T14:48:12.960Z,3.85
2023-09-13T14:51:00.947Z,4.55
2023-09-13T14:53:48.796Z,4.95
2023-09-13T14:56:36.648Z,4.77
2023-09-13T14:59:24.553Z,5.00
2023-09-13T15:02:12.480Z,4.78
2023-09-13T15:05:01.771Z,4.25
2023-09-13T15:07:49.632Z,4.50
2023-09-13T15:10:37.385Z,4.63
2023-09-13T15:13:25.261Z,4.65
2023-09-13T15:16:14.484Z,4.03
2023-09-13T15:19:03.885Z,4.60
2023-09-13T15:21:53.281Z,4.03
2023-09-13T15:24:41.131Z,3.47
2023-09-13T15:27:29.132Z,4.88
2023-09-13T15:30:19.531Z,3.42
2023-09-13T15:33:07.762Z,4.13
2023-09-13T15:35:55.754Z,3.33
2023-09-13T15:38:58.193Z,4.23
2023-09-13T15:41:46.802Z,3.92
2023-09-13T15:44:34.822Z,4.13
2023-09-13T15:47:22.686Z,4.68
2023-09-13T15:50:10.821Z,7.47
2023-09-13T15:52:58.736Z,3.43
2023-09-13T15:55:48.053Z,3.20
2023-09-13T15:58:36.343Z,4.50
2023-09-13T16:01:24.238Z,4.78
2023-09-13T16:04:12.175Z,8.00
2023-09-13T16:07:00.190Z,6.27
2023-09-13T16:09:48.117Z,7.00
2023-09-13T16:12:39.736Z,3.28
2023-09-13T16:15:27.774Z,4.10
2023-09-13T16:18:15.856Z,3.53
2023-09-13T16:21:03.919Z,3.50
2023-09-13T16:23:51.787Z,6.93
2023-09-13T16:26:39.646Z,4.55
2023-09-13T16:29:28.907Z,3.10
2023-09-13T16:32:18.834Z,3.95
2023-09-13T16:35:06.848Z,4.33
2023-09-13T16:37:54.733Z,3.90
2023-09-13T16:40:42.598Z,5.15
2023-09-13T16:43:30.445Z,3.03
2023-09-13T16:46:19.769Z,5.47
2023-09-13T16:49:08.256Z,7.73
2023-09-13T16:51:56.611Z,3.45
2023-09-13T16:54:44.903Z,4.55
2023-09-13T16:57:33.534Z,3.75
2023-09-13T17:00:23.707Z,4.53
2023-09-13T17:03:12.985Z,6.67
2023-09-13T17:06:00.849Z,7.75
2023-09-13T17:08:49.814Z,5.85
2023-09-13T17:11:37.712Z,3.95
2023-09-13T17:14:25.680Z,4.20
2023-09-13T17:17:15.121Z,6.13
2023-09-13T17:20:06.139Z,5.18
2023-09-13T17:22:53.946Z,4.40
2023-09-13T17:25:41.824Z,9.35
2023-09-13T17:28:29.681Z,5.55
2023-09-13T17:31:17.577Z,4.83
2023-09-13T17:34:05.543Z,4.43
2023-09-13T17:36:54.882Z,4.57
2023-09-13T17:39:42.805Z,5.63
2023-09-13T17:42:30.786Z,5.05
2023-09-13T17:45:18.870Z,4.40
2023-09-13T17:48:07.267Z,3.95
2023-09-13T17:50:55.201Z,4.50
2023-09-13T17:53:44.403Z,4.18
2023-09-13T17:56:33.881Z,5.43
2023-09-13T17:59:21.844Z,3.57
2023-09-13T18:02:09.705Z,5.32
2023-09-13T18:05:00.296Z,3.42
2023-09-13T18:07:48.242Z,4.53
2023-09-13T18:10:37.406Z,6.45
2023-09-13T18:13:25.340Z,4.47
2023-09-13T18:16:13.260Z,3.40
2023-09-13T18:19:01.248Z,6.00
2023-09-13T18:21:49.347Z,3.53
2023-09-13T18:24:39.854Z,2.88
2023-09-13T18:27:29.633Z,3.40
2023-09-13T18:30:17.611Z,5.15
2023-09-13T18:33:05.763Z,4.85
2023-09-13T18:35:58.451Z,3.60
2023-09-13T18:38:46.646Z,3.88
2023-09-13T18:41:35.495Z,5.60
2023-09-13T18:44:27.315Z,3.70
2023-09-13T18:47:15.358Z,3.58
2023-09-13T18:50:03.350Z,4.47
2023-09-13T18:52:51.237Z,4.32
2023-09-13T18:55:41.792Z,4.47
2023-09-13T18:58:29.861Z,4.40
2023-09-13T19:01:19.029Z,3.97
2023-09-13T19:04:07.027Z,3.97
2023-09-13T19:07:08.339Z,3.30
2023-09-13T19:09:58.050Z,5.40
2023-09-13T19:12:48.687Z,4.43
2023-09-13T19:15:36.729Z,3.80
2023-09-13T19:18:26.014Z,8.15
2023-09-13T19:21:15.075Z,5.15
2023-09-13T19:24:02.999Z,5.77
2023-09-13T19:26:50.933Z,3.97
2023-09-13T19:29:39.282Z,5.50
2023-09-13T19:32:27.275Z,3.83
2023-09-13T19:35:16.889Z,4.30
2023-09-13T19:38:13.201Z,5.30
2023-09-13T19:41:08.127Z,4.28
2023-09-13T19:43:56.186Z,3.75
2023-09-13T19:46:44.565Z,4.75
2023-09-13T19:49:32.476Z,5.65
2023-09-13T19:52:22.899Z,5.17
2023-09-13T19:55:10.796Z,5.80
2023-09-13T19:57:58.694Z,5.35
2023-09-13T20:00:48.604Z,4.80
2023-09-13T20:03:36.915Z,4.30
2023-09-13T20:06:25.966Z,3.77
2023-09-13T20:09:15.148Z,3.53
2023-09-13T20:12:03.632Z,3.97
2023-09-13T20:14:51.553Z,5.25
2023-09-13T20:17:39.485Z,4.13
2023-09-13T20:20:27.907Z,6.60
2023-09-13T20:23:15.899Z,3.95
2023-09-13T20:26:05.677Z,5.93
2023-09-13T20:28:53.664Z,5.53
2023-09-13T20:31:41.632Z,4.60
2023-09-13T20:34:34.807Z,3.53
2023-09-13T20:37:22.820Z,6.05
2023-09-13T20:40:11.403Z,5.88
2023-09-13T20:43:00.610Z,6.05
2023-09-13T20:45:50.080Z,4.55
2023-09-13T20:48:38.108Z,6.70
2023-09-13T20:51:26.076Z,5.50
2023-09-13T20:54:13.974Z,6.10
2023-09-13T20:57:02.540Z,5.55
2023-09-13T20:59:51.804Z,3.70
2023-09-13T21:02:39.737Z,3.67
2023-09-13T21:05:27.638Z,6.32
2023-09-13T21:08:15.488Z,4.28
2023-09-13T21:11:06.193Z,3.30
2023-09-13T21:13:54.059Z,5.93
2023-09-13T21:16:44.050Z,3.53
2023-09-13T21:19:32.619Z,3.15
2023-09-13T21:22:20.534Z,4.75
2023-09-13T21:25:08.800Z,6.72
2023-09-13T21:27:56.705Z,5.10
2023-09-13T21:30:44.723Z,5.27
2023-09-13T21:33:34.058Z,3.35
2023-09-13T21:36:23.593Z,4.88
2023-09-13T21:39:11.838Z,5.38
2023-09-13T21:41:59.725Z,6.50
2023-09-13T21:44:47.658Z,3.37
2023-09-13T21:47:35.527Z,6.57
2023-09-13T21:50:24.829Z,6.72
2023-09-13T21:53:15.657Z,3.45
2023-09-13T21:56:04.962Z,4.03
2023-09-13T21:58:52.784Z,5.00
2023-09-13T22:01:42.335Z,3.67
2023-09-13T22:04:30.820Z,5.18
2023-09-13T22:07:20.107Z,6.40
2023-09-13T22:10:08.333Z,5.47
2023-09-13T22:12:56.144Z,5.00
2023-09-13T22:15:46.425Z,4.35
2023-09-13T22:18:34.427Z,3.97
2023-09-13T22:21:23.035Z,6.18
2023-09-13T22:24:12.197Z,4.55
2023-09-13T22:27:00.076Z,5.40
2023-09-13T22:29:48.359Z,8.00
2023-09-13T22:32:36.397Z,6.32
2023-09-13T22:35:24.301Z,4.95
2023-09-13T22:38:12.280Z,7.03
2023-09-13T22:41:01.978Z,6.47
2023-09-13T22:43:52.428Z,4.35
2023-09-13T22:46:40.325Z,4.28
2023-09-13T22:49:28.643Z,5.10
2023-09-13T22:52:16.688Z,5.78
2023-09-13T22:55:04.757Z,4.23
2023-09-13T22:57:54.045Z,5.70
2023-09-13T23:00:41.987Z,5.80
2023-09-13T23:03:43.950Z,4.43
2023-09-13T23:06:32.965Z,6.45
2023-09-13T23:09:20.904Z,5.10
2023-09-13T23:12:09.114Z,5.43
2023-09-13T23:14:58.325Z,5.97
2023-09-13T23:17:46.250Z,5.35
2023-09-13T23:20:36.844Z,4.50
2023-09-13T23:23:24.641Z,5.47
2023-09-13T23:26:13.400Z,5.88
2023-09-13T23:29:01.445Z,3.58
2023-09-13T23:31:51.513Z,4.45
2023-09-13T23:34:41.310Z,8.35
2023-09-13T23:37:29.396Z,5.23
2023-09-13T23:40:18.429Z,6.00
2023-09-13T23:43:06.412Z,4.50
2023-09-13T23:45:54.336Z,5.30
2023-09-13T23:48:44.549Z,5.45
2023-09-13T23:51:32.765Z,6.17
2023-09-13T23:54:20.736Z,4.90
2023-09-13T23:57:08.548Z,5.63
2023-09-13T23:59:56.490Z,6.22
